Time;durP1;ratioP1;P1;durP2;ratioP2;P2;SDS_P1;SDS_P2;PMS_P1;PMS_P2;Temp;Humidity;BMP_temperature;BMP_pressure;BME280_temperature;BME280_humidity;BME280_pressure;Samples;Min_cycle;Max_cycle;Signal;HPM_P1;HPM_P2
2023/08/16 00:01:20;;;;;;;11.38;5.07;;;;;;;30.26;65.75;100863.28;5085323;27;69977;-36
2023/08/16 00:03:50;;;;;;;7.88;5.38;;;;;;;30.33;67.06;100876.75;5092382;27;66489;-35
2023/08/16 00:06:20;;;;;;;14.02;6.60;;;;;;;30.33;66.41;100879.47;5096873;27;70463;-35
2023/08/16 00:08:53;;;;;;;9.73;5.80;;;;;;;30.36;71.85;100889.84;5099341;27;66274;-36
2023/08/16 00:11:25;;;;;;;14.55;5.55;;;;;;;30.36;72.53;100896.09;5096296;27;70084;-36
2023/08/16 00:13:56;;;;;;;11.18;5.88;;;;;;;30.33;71.42;100884.88;5081559;27;66547;-35
2023/08/16 00:16:26;;;;;;;21.13;5.60;;;;;;;30.40;71.93;100897.34;5093174;27;69706;-37
2023/08/16 00:18:57;;;;;;;13.43;6.60;;;;;;;30.43;70.72;100894.19;5098179;27;66841;-36
2023/08/16 00:21:27;;;;;;;11.77;6.18;;;;;;;30.36;73.27;100884.44;5096063;27;70135;-36
2023/08/16 00:23:57;;;;;;;14.60;6.10;;;;;;;30.42;73.48;100894.41;5089314;27;66187;-37
2023/08/16 00:26:27;;;;;;;8.77;6.68;;;;;;;30.43;73.73;100907.72;5090671;27;70188;-37
2023/08/16 00:28:57;;;;;;;11.55;6.22;;;;;;;30.44;73.54;100898.53;5091844;27;65661;-40
2023/08/16 00:31:27;;;;;;;19.58;6.95;;;;;;;30.44;71.67;100887.72;5100008;27;69445;-38
2023/08/16 00:33:57;;;;;;;9.85;6.30;;;;;;;30.58;72.60;100910.13;5093036;27;66062;-36
2023/08/16 00:36:27;;;;;;;9.20;5.40;;;;;;;30.61;70.44;100909.69;5075858;27;70556;-36
2023/08/16 00:38:57;;;;;;;7.32;5.03;;;;;;;30.57;72.92;100908.47;5076113;27;66124;-37
2023/08/16 00:41:27;;;;;;;12.82;5.75;;;;;;;30.60;72.04;100908.03;5091491;27;69897;-36
2023/08/16 00:44:04;;;;;;;11.52;5.70;;;;;;;30.64;72.74;100914.66;5076445;27;66696;-37
2023/08/16 00:46:34;;;;;;;12.38;5.03;;;;;;;30.71;70.47;100914.63;5069873;27;69562;-36
2023/08/16 00:49:04;;;;;;;6.40;4.55;;;;;;;30.85;67.61;100916.22;5097412;27;65788;-37
2023/08/16 00:51:35;;;;;;;8.77;4.57;;;;;;;30.91;67.07;100914.53;5094517;27;70928;-38
2023/08/16 00:54:06;;;;;;;8.20;4.50;;;;;;;30.94;66.38;100925.75;5098362;27;66751;-37
2023/08/16 00:56:37;;;;;;;7.55;4.38;;;;;;;30.93;65.80;100917.84;5072812;27;69320;-37
2023/08/16 00:59:09;;;;;;;7.25;4.63;;;;;;;31.00;66.02;100929.44;5093200;27;65410;-38
2023/08/16 01:01:40;;;;;;;6.73;4.57;;;;;;;30.97;65.74;100918.22;5097242;27;69788;-38
2023/08/16 01:04:10;;;;;;;7.43;4.40;;;;;;;30.96;65.07;100917.41;5082151;27;64995;-38
2023/08/16 01:06:40;;;;;;;9.15;4.60;;;;;;;31.08;65.01;100931.88;5094602;27;70253;-38
2023/08/16 01:09:10;;;;;;;6.90;4.57;;;;;;;31.09;64.95;100930.88;5076734;27;65648;-38
2023/08/16 01:12:23;;;;;;;6.05;4.50;;;;;;;30.99;65.24;100938.63;5097887;27;69625;-38
2023/08/16 01:15:21;;;;;;;5.20;4.18;;;;;;;30.76;64.66;100890.44;5053388;27;65626;-38
2023/08/16 01:17:53;;;;;;;4.22;3.60;;;;;;;31.11;64.28;100939.56;5098316;27;69398;-37
2023/08/16 01:20:25;;;;;;;11.07;4.38;;;;;;;31.19;64.54;100937.66;5075889;27;66005;-39
2023/08/16 01:23:05;;;;;;;8.07;4.60;;;;;;;31.19;64.42;100943.91;5081610;27;70404;-39
2023/08/16 01:25:59;;;;;;;3.65;3.35;;;;;;;31.21;64.20;100946.41;5087400;27;66997;-40
2023/08/16 01:28:32;;;;;;;7.50;4.10;;;;;;;31.26;64.22;100949.25;5086278;27;69374;-39
2023/08/16 01:31:06;;;;;;;4.40;3.58;;;;;;;31.26;64.25;100938.41;5075653;27;66469;-40
2023/08/16 01:33:36;;;;;;;8.25;4.38;;;;;;;31.30;64.00;100950.47;5087175;27;70269;-40
2023/08/16 01:36:06;;;;;;;8.25;3.70;;;;;;;31.32;63.95;100959.22;5077387;27;65766;-38
2023/08/16 01:38:36;;;;;;;8.07;3.80;;;;;;;31.35;63.85;100953.38;5079100;27;70396;-38
2023/08/16 01:41:30;;;;;;;5.65;3.58;;;;;;;31.25;63.61;100947.59;5087385;27;66331;-37
2023/08/16 01:44:03;;;;;;;3.90;3.47;;;;;;;31.39;63.65;100951.88;5087560;27;70305;-39
2023/08/16 01:46:35;;;;;;;6.38;3.80;;;;;;;31.40;63.62;100942.72;5079395;27;65641;-38
2023/08/16 01:49:07;;;;;;;;;;;;;;;31.03;64.95;100953.38;5084928;27;69579;-39
2023/08/16 01:51:40;;;;;;;3.38;3.08;;;;;;;31.39;63.47;100951.88;5102263;27;66658;-38
2023/08/16 01:54:12;;;;;;;4.10;3.70;;;;;;;31.37;63.46;100933.16;5101818;27;70299;-37
2023/08/16 01:56:42;;;;;;;5.97;3.80;;;;;;;31.48;63.41;100947.88;5082179;27;66304;-39
2023/08/16 01:59:12;;;;;;;5.85;3.40;;;;;;;31.53;63.63;100955.31;5076198;27;69942;-39
2023/08/16 02:01:42;;;;;;;4.18;3.55;;;;;;;31.56;63.15;100946.72;5082923;27;66045;-38
2023/08/16 02:04:12;;;;;;;3.80;3.42;;;;;;;31.58;63.42;100947.34;5084572;27;69744;-37
2023/08/16 02:06:58;;;;;;;3.95;3.65;;;;;;;31.61;63.38;100950.41;5079558;27;65503;-37
2023/08/16 02:09:29;;;;;;;4.22;3.83;;;;;;;31.49;63.23;100922.41;5084396;27;69304;-37
2023/08/16 02:11:59;;;;;;;3.92;2.80;;;;;;;31.65;63.18;100939.13;5081235;27;66476;-40
2023/08/16 02:14:29;;;;;;;3.75;3.45;;;;;;;31.61;62.88;100934.16;5076532;27;70155;-38
2023/08/16 02:17:00;;;;;;;3.55;3.25;;;;;;;31.71;62.89;100943.66;5085166;27;66533;-40
2023/08/16 02:19:30;;;;;;;4.90;3.85;;;;;;;31.70;63.03;100950.13;5088303;27;69752;-38
2023/08/16 02:22:00;;;;;;;6.13;3.65;;;;;;;31.75;62.83;100950.28;5099624;27;65715;-41
2023/08/16 02:24:31;;;;;;;3.83;3.53;;;;;;;31.76;62.96;100938.38;5084210;27;70519;-38
2023/08/16 02:27:00;;;;;;;4.60;3.97;;;;;;;31.80;62.90;100953.16;5103570;27;65525;-38
2023/08/16 02:29:31;;;;;;;3.70;3.40;;;;;;;31.81;62.39;100949.38;5086394;27;69798;-37
2023/08/16 02:32:06;;;;;;;4.32;3.80;;;;;;;31.81;62.40;100947.50;5082927;27;66763;-39
2023/08/16 02:34:38;;;;;;;4.47;3.58;;;;;;;31.87;62.43;100956.63;5081598;27;70600;-39
2023/08/16 02:37:08;;;;;;;3.83;3.53;;;;;;;31.91;62.43;100952.44;5086306;27;65553;-37
2023/08/16 02:39:38;;;;;;;5.72;3.22;;;;;;;31.95;62.49;100944.69;5083410;27;70029;-39
2023/08/16 02:42:08;;;;;;;3.50;3.20;;;;;;;31.95;62.30;100942.78;5087458;27;66412;-38
2023/08/16 02:44:41;;;;;;;3.42;3.13;;;;;;;31.99;62.57;100951.31;5072763;27;70295;-39
2023/08/16 02:47:11;;;;;;;4.00;3.58;;;;;;;32.01;62.62;100950.03;5089110;27;65738;-39
2023/08/16 02:49:41;;;;;;;5.53;3.55;;;;;;;31.99;62.07;100949.44;5087180;27;70247;-41
2023/08/16 02:52:12;;;;;;;3.53;3.08;;;;;;;32.07;62.27;100961.03;5087544;27;66166;-39
2023/08/16 02:54:42;;;;;;;3.78;3.47;;;;;;;32.08;62.16;100946.41;5087253;27;70302;-40
2023/08/16 02:57:13;;;;;;;8.07;3.50;;;;;;;32.10;61.95;100950.56;5081607;27;66109;-39
2023/08/16 02:59:47;;;;;;;5.72;2.75;;;;;;;32.16;61.80;100954.25;5100436;27;70095;-39
2023/08/16 03:02:18;;;;;;;2.95;2.72;;;;;;;32.16;61.93;100956.97;5097058;27;66586;-40
2023/08/16 03:04:49;;;;;;;4.55;2.95;;;;;;;32.17;62.16;100958.63;5097518;27;70482;-39
2023/08/16 03:07:37;;;;;;;3.53;3.17;;;;;;;32.22;61.96;100958.78;5098286;27;66158;-40
2023/08/16 03:10:09;;;;;;;4.00;3.22;;;;;;;32.19;62.04;100945.66;5072250;27;70436;-40
2023/08/16 03:12:40;;;;;;;6.72;2.85;;;;;;;32.24;61.80;100957.50;5087409;27;65319;-40
2023/08/16 03:15:11;;;;;;;3.57;3.10;;;;;;;32.26;61.81;100949.94;5089884;27;70478;-39
2023/08/16 03:17:41;;;;;;;3.47;2.92;;;;;;;32.31;61.86;100941.09;5098359;27;66333;-40
2023/08/16 03:20:12;;;;;;;3.90;2.70;;;;;;;32.34;61.79;100940.63;5077186;28;69712;-38
2023/08/16 03:22:43;;;;;;;4.25;3.17;;;;;;;32.28;61.87;100936.13;5082219;27;65008;-42
2023/08/16 03:25:16;;;;;;;4.35;3.30;;;;;;;32.28;61.40;100925.28;5079682;27;69209;-40
2023/08/16 03:27:46;;;;;;;3.92;2.88;;;;;;;32.40;61.50;100934.31;5077810;27;65642;-41
2023/08/16 03:30:17;;;;;;;5.22;3.30;;;;;;;32.42;61.61;100928.66;5077256;28;72470;-40
2023/08/16 03:32:47;;;;;;;6.82;2.70;;;;;;;32.46;61.54;100917.13;5083972;27;66642;-42
2023/08/16 03:35:20;;;;;;;3.65;2.97;;;;;;;32.45;61.63;100904.56;5079588;27;70978;-39
2023/08/16 03:37:50;;;;;;;4.43;2.78;;;;;;;32.48;61.71;100914.19;5085813;27;66225;-39
2023/08/16 03:40:20;;;;;;;3.80;2.75;;;;;;;32.41;61.49;100889.81;5085606;27;70021;-40
2023/08/16 03:42:50;;;;;;;2.85;2.65;;;;;;;32.52;61.30;100901.81;5077881;27;65739;-39
2023/08/16 03:45:26;;;;;;;6.88;2.88;;;;;;;32.38;61.27;100865.03;5084695;27;70354;-40
2023/08/16 03:47:59;;;;;;;3.25;2.65;;;;;;;32.58;61.23;100894.63;5075099;28;65103;-40
2023/08/16 03:50:29;;;;;;;4.75;2.75;;;;;;;32.57;61.19;100895.66;5082153;27;70153;-40
2023/08/16 03:52:59;;;;;;;3.38;2.60;;;;;;;32.62;61.38;100895.81;5076874;27;67115;-40
2023/08/16 03:55:31;;;;;;;3.00;2.70;;;;;;;32.59;61.24;100888.13;5087602;27;70126;-39
2023/08/16 03:58:01;;;;;;;3.20;2.75;;;;;;;32.65;61.26;100898.06;5089938;27;66670;-39
2023/08/16 04:00:31;;;;;;;3.63;2.67;;;;;;;32.52;60.96;100862.97;5092649;27;70548;-39
2023/08/16 04:03:04;;;;;;;3.35;2.58;;;;;;;32.69;61.09;100888.41;5082809;27;66607;-40
2023/08/16 04:05:34;;;;;;;3.38;2.60;;;;;;;32.56;61.32;100845.13;5071145;27;70207;-37
2023/08/16 04:08:04;;;;;;;2.83;2.55;;;;;;;32.63;61.33;100862.16;5089674;27;66689;-39
2023/08/16 04:10:37;;;;;;;3.08;2.75;;;;;;;32.62;60.83;100860.50;5092990;27;70255;-41
2023/08/16 04:13:12;;;;;;;6.20;2.35;;;;;;;32.72;61.07;100877.06;5084856;27;66247;-38
2023/08/16 04:15:42;;;;;;;4.05;2.30;;;;;;;32.75;60.93;100876.59;5087205;27;69278;-40
2023/08/16 04:18:12;;;;;;;3.25;2.35;;;;;;;32.69;61.11;100866.66;5087540;27;66451;-39
2023/08/16 04:20:42;;;;;;;2.88;2.20;;;;;;;32.75;60.92;100865.72;5077399;27;70410;-38
2023/08/16 04:23:12;;;;;;;3.40;2.40;;;;;;;32.82;60.86;100854.75;5063501;28;66126;-41
2023/08/16 04:25:42;;;;;;;2.78;2.25;;;;;;;32.83;60.96;100849.09;5078545;27;69571;-38
2023/08/16 04:28:13;;;;;;;4.70;2.22;;;;;;;32.84;60.85;100842.56;5092647;27;66168;-39
2023/08/16 04:30:43;;;;;;;2.33;2.03;;;;;;;32.76;60.47;100825.81;5090846;27;70230;-40
2023/08/16 04:33:13;;;;;;;4.85;2.40;;;;;;;32.87;60.59;100836.66;5077372;28;66447;-40
2023/08/16 04:35:43;;;;;;;3.42;2.47;;;;;;;32.91;60.52;100831.63;5061146;27;69813;-39
2023/08/16 04:38:14;;;;;;;2.00;1.80;;;;;;;32.90;60.48;100824.50;5088336;27;66259;-40
2023/08/16 04:40:47;;;;;;;3.33;2.03;;;;;;;32.80;60.54;100808.81;5088169;27;69957;-39
2023/08/16 04:43:19;;;;;;;2.72;2.05;;;;;;;32.94;60.84;100812.13;5083041;27;65843;-41
2023/08/16 04:45:53;;;;;;;6.13;2.38;;;;;;;32.93;60.53;100805.88;5080628;27;69017;-41
2023/08/16 04:48:23;;;;;;;2.53;2.10;;;;;;;32.97;60.69;100813.53;5081072;27;65988;-39
2023/08/16 04:50:54;;;;;;;4.88;2.78;;;;;;;32.97;60.43;100808.13;5079865;27;70214;-41
2023/08/16 04:53:25;;;;;;;3.53;2.92;;;;;;;33.01;60.62;100803.88;5078605;27;66229;-39
2023/08/16 04:55:56;;;;;;;2.78;2.55;;;;;;;32.74;60.16;100763.59;5080508;27;69903;-38
2023/08/16 04:58:27;;;;;;;3.25;3.05;;;;;;;32.61;60.46;100733.94;5079431;27;66106;-39
2023/08/16 05:00:58;;;;;;;3.38;3.08;;;;;;;33.06;60.23;100795.84;5087472;27;69708;-40
2023/08/16 05:03:33;;;;;;;3.15;2.85;;;;;;;33.04;60.31;100787.09;5056044;28;65887;-40
2023/08/16 05:06:04;;;;;;;3.33;3.03;;;;;;;33.03;60.19;100769.16;5092862;27;70402;-40
2023/08/16 05:08:35;;;;;;;4.70;3.03;;;;;;;33.09;60.27;100773.63;5080960;27;66601;-38
2023/08/16 05:11:06;;;;;;;9.30;3.93;;;;;;;32.88;60.44;100748.69;5078369;27;70594;-41
2023/08/16 05:13:36;;;;;;;7.22;3.65;;;;;;;32.96;60.31;100773.84;5088198;27;65724;-40
2023/08/16 05:16:06;;;;;;;7.93;3.50;;;;;;;32.84;59.34;100777.38;5103730;27;70159;-39
2023/08/16 05:18:37;;;;;;;6.95;3.30;;;;;;;32.80;59.04;100770.78;5104671;27;66024;-40
2023/08/16 05:21:06;;;;;;;9.38;3.33;;;;;;;32.59;57.90;100736.03;5088662;27;70040;-42
2023/08/16 05:23:37;;;;;;;4.13;3.50;;;;;;;32.60;56.95;100737.72;5075007;27;66309;-41
2023/08/16 05:26:07;;;;;;;3.53;3.22;;;;;;;32.58;56.61;100734.41;5100243;27;70470;-41
2023/08/16 05:28:37;;;;;;;3.45;2.80;;;;;;;32.54;55.73;100716.91;5088608;27;66315;-39
2023/08/16 05:31:10;;;;;;;3.45;3.17;;;;;;;32.45;53.11;100722.66;5091136;27;70461;-43
2023/08/16 05:33:41;;;;;;;5.93;3.78;;;;;;;32.49;54.06;100729.31;5095723;27;65819;-40
2023/08/16 05:36:11;;;;;;;4.50;3.53;;;;;;;32.42;53.95;100720.41;5095902;27;70166;-40
2023/08/16 05:38:41;;;;;;;3.40;3.10;;;;;;;32.34;51.40;100711.78;5091439;27;66345;-39
2023/08/16 05:41:11;;;;;;;3.22;3.03;;;;;;;32.33;53.04;100710.97;5091807;27;69631;-41
2023/08/16 05:43:41;;;;;;;5.63;3.47;;;;;;;32.33;51.65;100700.13;5092145;27;65305;-40
2023/08/16 05:46:13;;;;;;;3.80;3.30;;;;;;;32.30;51.55;100695.16;5094628;27;70171;-40
2023/08/16 05:48:43;;;;;;;4.00;3.67;;;;;;;32.23;49.95;100684.44;5100733;27;66607;-40
2023/08/16 05:51:13;;;;;;;3.50;3.28;;;;;;;32.27;50.86;100682.06;5100455;27;70025;-41
2023/08/16 05:53:43;;;;;;;7.28;3.45;;;;;;;32.24;49.28;100674.38;5093442;27;66208;-40
2023/08/16 05:56:13;;;;;;;7.25;3.78;;;;;;;32.18;48.25;100667.16;5095258;27;70546;-40
2023/08/16 05:58:44;;;;;;;3.38;3.17;;;;;;;32.12;49.75;100654.53;5100402;27;66462;-41
2023/08/16 06:01:14;;;;;;;3.58;3.28;;;;;;;32.25;47.79;100648.88;5085892;27;69515;-39
2023/08/16 06:03:44;;;;;;;4.03;3.70;;;;;;;32.27;48.32;100663.06;5096439;27;65933;-39
2023/08/16 06:06:14;;;;;;;4.05;3.75;;;;;;;32.19;47.93;100650.66;5099504;27;69656;-41
2023/08/16 06:08:44;;;;;;;3.70;3.40;;;;;;;32.16;47.54;100661.16;5072957;27;65172;-40
2023/08/16 06:11:14;;;;;;;4.65;4.30;;;;;;;32.17;47.63;100651.94;5102943;27;69474;-40
2023/08/16 06:13:45;;;;;;;3.42;3.22;;;;;;;32.13;46.56;100643.47;5087517;27;65703;-40
2023/08/16 06:16:15;;;;;;;6.07;3.83;;;;;;;32.18;48.15;100648.16;5094623;27;70938;-40
2023/08/16 06:18:46;;;;;;;4.50;3.88;;;;;;;32.03;45.98;100629.63;5093149;27;65970;-39
2023/08/16 06:21:16;;;;;;;4.03;3.72;;;;;;;32.12;46.93;100624.69;5096772;27;69168;-40
2023/08/16 06:23:47;;;;;;;3.70;3.42;;;;;;;32.09;45.31;100619.75;5097693;27;66659;-40
2023/08/16 06:26:36;;;;;;;3.67;3.40;;;;;;;32.04;45.65;100626.72;5101938;27;69867;-39
2023/08/16 06:29:06;;;;;;;3.78;3.53;;;;;;;32.03;46.42;100616.91;5093757;27;66455;-38
2023/08/16 06:31:37;;;;;;;3.75;3.55;;;;;;;32.08;46.06;100609.97;5097719;27;70118;-39
2023/08/16 06:34:06;;;;;;;4.30;4.00;;;;;;;32.08;46.59;100601.81;5095660;27;66076;-41
2023/08/16 06:36:37;;;;;;;4.35;4.05;;;;;;;32.06;45.83;100596.59;5096981;27;69179;-39
2023/08/16 06:41:58;;;;;;;3.47;3.27;;;;;;;32.20;46.43;100602.63;5093971;27;70672;-41
2023/08/16 06:44:28;;;;;;;4.57;3.90;;;;;;;32.35;46.85;100603.00;5092047;27;66447;-41
2023/08/16 06:47:01;;;;;;;3.97;3.58;;;;;;;32.46;46.86;100602.19;5076714;27;69566;-40
2023/08/16 06:49:32;;;;;;;3.85;3.55;;;;;;;32.57;47.13;100591.53;5091595;27;66489;-40
2023/08/16 06:52:01;;;;;;;4.93;4.05;;;;;;;32.62;47.36;100586.22;5086733;27;70150;-40
2023/08/16 06:54:32;;;;;;;3.38;3.08;;;;;;;32.55;47.40;100561.91;5088052;27;65821;-44
2023/08/16 06:57:03;;;;;;;4.18;3.60;;;;;;;32.71;47.62;100576.66;5089523;27;70438;-43
2023/08/16 06:59:33;;;;;;;3.90;3.60;;;;;;;32.82;47.84;100578.50;5090971;27;66406;-41
2023/08/16 07:02:03;;;;;;;4.03;3.72;;;;;;;32.87;47.73;100575.88;5084768;27;69330;-42
2023/08/16 07:04:33;;;;;;;4.07;3.78;;;;;;;32.93;47.93;100574.94;5089240;27;66610;-41
2023/08/16 07:07:03;;;;;;;3.60;3.30;;;;;;;32.98;47.83;100565.22;5084003;27;70189;-41
2023/08/16 07:09:33;;;;;;;3.88;3.58;;;;;;;33.02;48.04;100552.84;5081625;27;66492;-41
2023/08/16 07:12:04;;;;;;;3.90;3.60;;;;;;;33.05;48.09;100550.44;5069819;28;70349;-41
2023/08/16 07:14:34;;;;;;;5.97;3.55;;;;;;;33.13;48.19;100551.97;5090351;27;65137;-41
2023/08/16 07:17:05;;;;;;;4.80;3.50;;;;;;;33.19;48.31;100556.41;5100679;27;69491;-41
2023/08/16 07:19:35;;;;;;;3.72;3.42;;;;;;;33.16;48.70;100548.75;5095429;27;65823;-41
2023/08/16 07:22:05;;;;;;;3.80;3.47;;;;;;;33.22;48.75;100547.75;5089422;27;69626;-40
2023/08/16 07:24:35;;;;;;;3.95;3.65;;;;;;;33.30;48.91;100560.16;5088199;27;66481;-39
2023/08/16 07:27:05;;;;;;;3.95;3.60;;;;;;;33.34;48.98;100558.56;5094203;27;69947;-39
2023/08/16 07:29:54;;;;;;;3.97;3.67;;;;;;;33.24;49.16;100559.22;5085866;27;66557;-41
2023/08/16 07:32:25;;;;;;;4.35;3.97;;;;;;;33.37;49.29;100563.50;5077826;28;70181;-39
2023/08/16 07:34:55;;;;;;;4.07;3.70;;;;;;;33.37;49.78;100572.50;5077478;28;66750;-40
2023/08/16 07:37:31;;;;;;;4.40;4.07;;;;;;;33.34;49.68;100574.88;5067704;28;69419;-39
2023/08/16 07:40:04;;;;;;;5.07;3.95;;;;;;;33.41;50.41;100581.00;5074541;28;66236;-40
2023/08/16 07:42:35;;;;;;;4.50;4.10;;;;;;;33.42;50.29;100587.25;5068421;28;69680;-39
2023/08/16 07:45:05;;;;;;;6.35;4.30;;;;;;;33.33;51.75;100598.53;5077494;27;66511;-40
2023/08/16 07:47:36;;;;;;;4.93;3.70;;;;;;;33.42;52.47;100615.28;5075520;28;68605;-40
2023/08/16 07:50:06;;;;;;;6.03;4.72;;;;;;;33.42;52.30;100619.88;5072320;28;67066;-39
2023/08/16 07:52:36;;;;;;;4.32;4.03;;;;;;;33.48;52.10;100618.91;5073845;28;70918;-41
2023/08/16 07:55:06;;;;;;;4.25;3.95;;;;;;;33.49;52.38;100604.22;5070808;27;66534;-37
2023/08/16 07:57:37;;;;;;;4.65;3.75;;;;;;;33.48;52.78;100591.72;5074996;28;70181;-41
2023/08/16 08:00:11;;;;;;;4.65;3.88;;;;;;;33.48;52.77;100575.41;5071269;28;66432;-41
2023/08/16 08:02:41;;;;;;;4.28;3.88;;;;;;;33.48;53.06;100556.38;5066704;28;69861;-39
2023/08/16 08:05:29;;;;;;;4.07;3.78;;;;;;;33.44;53.43;100541.63;5065985;28;65006;-42
2023/08/16 08:08:00;;;;;;;;;;;;;;;33.15;55.26;100525.34;5068933;28;69469;-40
2023/08/16 08:10:31;;;;;;;3.90;3.55;;;;;;;33.37;53.67;100525.44;5067279;28;65993;-41
2023/08/16 08:13:02;;;;;;;5.30;3.65;;;;;;;33.37;53.94;100526.28;5073704;28;69963;-40
2023/08/16 08:15:32;;;;;;;5.13;4.03;;;;;;;33.41;54.00;100553.00;5068500;28;66102;-41
2023/08/16 08:18:03;;;;;;;4.05;3.75;;;;;;;33.35;54.05;100554.81;5064115;28;70305;-39
2023/08/16 08:20:33;;;;;;;4.18;3.78;;;;;;;33.36;54.59;100546.38;5066899;28;65337;-41
2023/08/16 08:23:03;;;;;;;7.18;3.95;;;;;;;33.36;54.66;100523.81;5075014;28;70183;-38
2023/08/16 08:25:34;;;;;;;3.40;3.10;;;;;;;33.26;54.54;100510.84;5065825;28;66327;-42
2023/08/16 08:28:04;;;;;;;4.18;3.80;;;;;;;33.33;54.52;100555.03;5073774;28;70052;-41
2023/08/16 08:30:34;;;;;;;4.25;3.95;;;;;;;33.32;54.56;100588.75;5078205;27;65640;-40
2023/08/16 08:33:05;;;;;;;4.05;3.75;;;;;;;33.28;55.08;100576.69;5088057;27;70786;-42
2023/08/16 08:35:57;;;;;;;4.18;3.70;;;;;;;33.17;55.17;100544.94;5042099;27;66392;-41
2023/08/16 08:38:27;;;;;;;7.10;3.42;;;;;;;32.91;55.09;100484.69;5088528;27;70217;-41
2023/08/16 08:41:01;;;;;;;4.07;3.70;;;;;;;33.11;55.47;100518.75;5089670;27;67978;-41
2023/08/16 08:43:34;;;;;;;4.68;3.67;;;;;;;33.24;55.64;100553.78;5084349;27;69959;-43
2023/08/16 08:46:38;;;;;;;3.90;3.60;;;;;;;33.05;55.37;100530.59;5089099;27;66801;-39
2023/08/16 08:49:11;;;;;;;3.83;3.53;;;;;;;32.69;55.70;100500.00;5083619;27;70502;-43
2023/08/16 08:54:34;;;;;;;4.65;4.25;;;;;;;33.11;56.42;100564.97;5089871;27;70741;-40
2023/08/16 08:57:06;;;;;;;4.65;4.07;;;;;;;32.61;55.93;100473.25;5094691;27;65581;-41
2023/08/16 08:59:41;;;;;;;3.70;3.40;;;;;;;33.08;56.48;100554.56;5091774;27;69087;-40
2023/08/16 09:02:12;;;;;;;3.35;3.15;;;;;;;33.08;55.85;100549.13;5095272;27;66024;-40
2023/08/16 09:04:46;;;;;;;4.32;3.45;;;;;;;32.96;56.12;100542.88;5084150;27;69544;-39
2023/08/16 09:07:23;;;;;;;4.20;3.90;;;;;;;32.87;56.44;100532.41;5086162;27;66183;-42
2023/08/16 09:10:02;;;;;;;4.07;3.67;;;;;;;33.00;56.43;100568.53;5086538;27;70524;-41
2023/08/16 09:12:39;;;;;;;4.63;4.30;;;;;;;32.98;57.07;100570.66;5084078;27;66147;-42
2023/08/16 09:15:10;;;;;;;3.90;3.53;;;;;;;32.77;57.02;100543.09;5077832;27;68944;-41
2023/08/16 09:18:02;;;;;;;5.50;4.40;;;;;;;32.91;57.43;100571.63;5085201;27;67759;-41
2023/08/16 09:20:36;;;;;;;5.38;4.47;;;;;;;32.89;57.59;100586.50;5090954;27;69363;-41
2023/08/16 09:23:14;;;;;;;4.80;4.50;;;;;;;32.88;58.30;100591.13;5087539;27;66226;-39
2023/08/16 09:29:17;;;;;;;5.75;4.78;;;;;;;32.76;58.17;100568.59;5082046;27;66963;-42
2023/08/16 09:32:07;;;;;;;5.38;4.90;;;;;;;32.81;58.21;100565.97;5079797;27;69350;-42
2023/08/16 09:34:45;;;;;;;5.43;5.00;;;;;;;32.79;58.31;100562.69;5083695;27;66275;-44
2023/08/16 10:10:16;;;;;;;15.00;5.10;;;;;;;32.23;61.82;100537.03;5060501;27;43724;-37
2023/08/16 10:12:50;;;;;;;20.33;5.85;;;;;;;32.24;63.26;100552.25;5061912;28;70106;-37
2023/08/16 10:15:21;;;;;;;7.32;4.72;;;;;;;32.08;69.22;100563.81;5062361;28;65936;-37
2023/08/16 10:18:13;;;;;;;9.93;4.70;;;;;;;32.08;69.88;100574.69;5059417;27;70010;-38
2023/08/16 10:20:49;;;;;;;6.95;5.15;;;;;;;31.86;70.57;100539.97;5067778;27;66125;-37
2023/08/16 10:23:24;;;;;;;7.68;4.95;;;;;;;32.05;70.63;100562.41;5063009;27;69321;-37
2023/08/16 10:26:20;;;;;;;5.87;5.20;;;;;;;31.99;71.16;100572.31;5070547;28;66016;-37
2023/08/16 10:32:24;;;;;;;5.10;4.60;;;;;;;31.95;71.60;100546.72;5011036;28;65346;-37
2023/08/16 10:35:15;;;;;;;5.63;5.13;;;;;;;32.00;71.67;100559.56;5048030;28;70201;-37
2023/08/16 10:37:49;;;;;;;5.23;4.83;;;;;;;32.09;71.86;100573.59;5021657;28;65257;-39
2023/08/16 10:40:25;;;;;;;8.07;5.20;;;;;;;32.06;72.17;100569.47;5042726;28;69211;-37
2023/08/16 10:43:03;;;;;;;8.88;5.75;;;;;;;32.15;71.91;100578.09;5063786;28;66477;-38
2023/08/16 10:45:35;;;;;;;6.63;5.63;;;;;;;32.05;71.89;100568.66;5061952;27;70285;-37
2023/08/16 10:48:17;;;;;;;7.20;5.72;;;;;;;32.16;72.20;100575.16;5079556;27;65064;-37
2023/08/16 10:51:03;;;;;;;6.53;5.93;;;;;;;31.93;72.44;100538.00;5062342;28;69752;-36
2023/08/16 10:53:56;;;;;;;7.05;5.95;;;;;;;31.87;72.53;100516.38;5069329;28;65849;-36
2023/08/16 10:56:38;;;;;;;6.82;6.22;;;;;;;31.86;72.01;100520.16;5049334;28;69138;-37
2023/08/16 10:59:08;;;;;;;7.40;6.13;;;;;;;32.12;72.25;100560.38;5062791;28;65617;-37
2023/08/16 11:01:48;;;;;;;6.05;5.60;;;;;;;32.12;72.06;100590.22;5063584;28;70279;-38
2023/08/16 11:04:19;;;;;;;6.90;5.95;;;;;;;32.10;72.07;100576.09;5063887;27;66222;-37
2023/08/16 11:07:09;;;;;;;10.73;6.15;;;;;;;32.11;72.85;100585.06;5065612;28;70607;-36
2023/08/16 11:09:42;;;;;;;7.13;6.10;;;;;;;32.10;73.72;100583.41;5060878;28;66270;-36
2023/08/16 11:12:14;;;;;;;8.95;6.80;;;;;;;32.12;74.13;100594.84;5053511;28;69474;-37
2023/08/16 11:14:47;;;;;;;17.02;6.57;;;;;;;32.09;74.12;100590.72;5048723;28;66206;-37
2023/08/16 11:17:17;;;;;;;5.97;5.45;;;;;;;32.03;74.42;100583.50;5046263;28;69167;-36
2023/08/16 11:19:47;;;;;;;9.38;6.55;;;;;;;32.02;74.55;100596.25;5046474;28;65816;-36
2023/08/16 11:22:18;;;;;;;6.57;5.97;;;;;;;32.11;74.73;100620.34;5046978;28;69943;-38
2023/08/16 11:24:49;;;;;;;6.95;6.28;;;;;;;32.09;74.38;100634.13;5047152;28;65664;-37
2023/08/16 11:27:23;;;;;;;6.77;6.17;;;;;;;32.10;74.48;100645.81;5051244;28;70195;-38
2023/08/16 11:30:01;;;;;;;8.10;6.40;;;;;;;32.12;74.36;100659.97;5055187;28;65819;-37
2023/08/16 11:32:40;;;;;;;6.30;5.75;;;;;;;31.55;74.37;100590.72;5055719;28;70274;-37
2023/08/16 11:35:14;;;;;;;11.63;6.43;;;;;;;32.12;74.21;100676.25;5055840;28;66402;-36
2023/08/16 11:37:46;;;;;;;6.40;5.80;;;;;;;31.56;74.76;100592.38;5039544;28;69879;-36
2023/08/16 11:40:22;;;;;;;8.95;6.30;;;;;;;32.12;74.16;100681.66;5054540;28;65968;-38
2023/08/16 11:42:52;;;;;;;7.25;6.60;;;;;;;32.04;74.25;100670.13;5049897;28;72049;-40
2023/08/16 11:45:24;;;;;;;11.13;6.95;;;;;;;31.87;74.22;100673.69;5053318;28;65463;-38
2023/08/16 11:48:13;;;;;;;;;;;;;;;31.90;74.78;100706.63;5051511;28;69973;-38
2023/08/16 11:50:43;;;;;;;6.75;6.13;;;;;;;31.82;74.10;100671.69;5055014;28;66530;-39
2023/08/16 11:53:19;;;;;;;9.10;6.75;;;;;;;32.04;73.82;100724.38;5048898;28;70118;-37
2023/08/16 11:55:59;;;;;;;7.72;7.07;;;;;;;32.03;74.06;100719.19;5055022;28;66106;-38
2023/08/16 11:58:50;;;;;;;10.82;7.07;;;;;;;32.07;74.68;100727.66;5045422;28;70521;-38
2023/08/16 12:01:23;;;;;;;7.13;6.43;;;;;;;32.08;74.36;100734.78;5052407;28;66670;-40
2023/08/16 12:03:57;;;;;;;8.80;7.43;;;;;;;32.05;74.88;100725.22;5053621;28;70351;-38
2023/08/16 12:06:28;;;;;;;10.27;7.75;;;;;;;32.09;74.42;100729.09;5046861;28;65643;-39
2023/08/16 12:09:16;;;;;;;13.93;8.07;;;;;;;32.04;74.54;100724.38;5048507;28;70876;-38
2023/08/16 12:11:51;;;;;;;7.68;7.00;;;;;;;31.43;74.45;100611.56;5050797;28;66074;-37
2023/08/16 12:14:21;;;;;;;7.82;7.13;;;;;;;32.09;74.34;100720.13;5053462;28;69942;-38
2023/08/16 12:16:52;;;;;;;9.73;7.35;;;;;;;32.11;74.40;100726.97;5050810;28;66297;-37
2023/08/16 12:19:22;;;;;;;11.38;6.93;;;;;;;32.13;74.09;100722.16;5058254;28;70299;-37
2023/08/16 12:21:53;;;;;;;8.10;7.40;;;;;;;31.95;74.12;100687.78;5057995;28;65985;-37
2023/08/16 12:24:23;;;;;;;7.93;7.22;;;;;;;32.13;74.13;100710.47;5045550;28;70560;-37
2023/08/16 12:26:53;;;;;;;8.93;8.02;;;;;;;32.14;74.26;100717.56;5051230;28;65729;-40
2023/08/16 12:29:23;;;;;;;8.63;7.75;;;;;;;32.03;74.33;100711.84;5044079;28;69822;-38
2023/08/16 12:31:53;;;;;;;7.38;6.78;;;;;;;32.13;74.25;100722.16;5057832;28;65693;-37
2023/08/16 12:34:24;;;;;;;8.52;7.53;;;;;;;32.12;74.01;100725.91;5044976;28;70169;-37
2023/08/16 12:36:54;;;;;;;10.68;7.72;;;;;;;31.88;74.24;100692.47;5054845;28;65739;-38